Alpine, Arkansas
Current Conditions -  °F | °C
As of 3:56 PM on Friday 28 Nov 2014 (Local Time) from KADF Reporting Station
Clear Clear  
Wind Chill: 61°   Ceiling: Unl
Heat Index: 61°   Visibility: 10mi
Dew Point: 40°   Wind: 9mph
Humidity: 46%   Direction: 180°S
Pressure: 30.13"   Gusts: NA
Location:  34.23°N, 93.38°W
Report Text: KADF 282156Z AUTO 18008KT 10SM CLR 16/04 A3013 RMK AO2 T01610044 SLP216
Loading
Personal Weather Stations






























Interactive Weather Map New forecast layout! Learn more

10-Day Weather Forecast

Advertisements
Track Severe Weather on mobile